createdAt,value
2017-11-04T00:00:51.093Z,0
2017-11-04T00:02:00.451Z,0
2017-11-04T00:03:09.795Z,0
2017-11-04T00:04:19.148Z,0
2017-11-04T00:05:28.509Z,0
2017-11-04T00:06:38.198Z,0
2017-11-04T00:07:47.876Z,0
2017-11-04T00:08:57.231Z,0
2017-11-04T00:10:06.584Z,0
2017-11-04T00:11:16.269Z,0
2017-11-04T00:12:26.295Z,0
2017-11-04T00:13:34.984Z,0
2017-11-04T00:14:44.003Z,0
2017-11-04T00:15:53.687Z,0
2017-11-04T00:17:02.774Z,0
2017-11-04T00:18:12.439Z,0
2017-11-04T00:19:21.130Z,0
2017-11-04T00:20:31.148Z,0
2017-11-04T00:21:39.888Z,0
2017-11-04T00:22:48.586Z,0
2017-11-04T00:23:57.939Z,0
2017-11-04T00:25:07.626Z,0
2017-11-04T00:26:16.644Z,0
2017-11-04T00:27:25.994Z,0
2017-11-04T00:28:35.343Z,0
2017-11-04T00:29:44.031Z,0
2017-11-04T00:30:53.387Z,0
2017-11-04T00:32:02.182Z,0
2017-11-04T00:33:11.198Z,0
2017-11-04T00:34:20.228Z,0
2017-11-04T00:35:29.251Z,0
2017-11-04T00:36:38.270Z,0
2017-11-04T00:37:47.289Z,0
2017-11-04T00:38:56.651Z,0
2017-11-04T00:40:06.006Z,0
2017-11-04T00:41:15.019Z,0
2017-11-04T00:42:24.711Z,0
2017-11-04T00:43:34.067Z,0
2017-11-04T00:44:43.093Z,0
2017-11-04T00:45:51.781Z,0
2017-11-04T00:47:01.465Z,0
2017-11-04T00:48:10.490Z,0
2017-11-04T00:49:19.178Z,0
2017-11-04T00:50:28.528Z,0
2017-11-04T00:51:37.882Z,0
2017-11-04T00:52:46.908Z,0
2017-11-04T00:53:56.259Z,0
2017-11-04T00:55:05.611Z,0
2017-11-04T00:56:14.301Z,0
2017-11-04T00:57:23.985Z,0
2017-11-04T00:58:33.012Z,0
2017-11-04T00:59:42.719Z,0
2017-11-04T01:00:52.421Z,0
2017-11-04T01:02:01.441Z,0
2017-11-04T01:03:11.523Z,0
2017-11-04T01:04:20.874Z,0
2017-11-04T01:05:30.229Z,0
2017-11-04T01:06:39.925Z,0
2017-11-04T01:07:48.949Z,0
2017-11-04T01:08:57.972Z,0
2017-11-04T01:10:07.332Z,0
2017-11-04T01:11:16.684Z,0
2017-11-04T01:12:25.703Z,0
2017-11-04T01:13:34.722Z,0
2017-11-04T01:14:44.075Z,0
2017-11-04T01:15:53.772Z,0
2017-11-04T01:17:02.460Z,0
2017-11-04T01:18:12.477Z,0
2017-11-04T01:19:21.500Z,0
2017-11-04T01:20:30.525Z,0
2017-11-04T01:21:39.544Z,0
2017-11-04T01:22:48.235Z,0
2017-11-04T01:23:57.921Z,0
2017-11-04T01:25:07.271Z,0
2017-11-04T01:26:16.293Z,0
2017-11-04T01:27:25.663Z,0
2017-11-04T01:28:34.687Z,0
2017-11-04T01:29:44.057Z,0
2017-11-04T01:30:53.765Z,0
2017-11-04T01:32:02.453Z,0
2017-11-04T01:33:11.146Z,0
2017-11-04T01:34:20.557Z,0
2017-11-04T01:35:29.913Z,0
2017-11-04T01:36:38.939Z,0
2017-11-04T01:37:48.634Z,0
2017-11-04T01:38:57.985Z,0
2017-11-04T01:40:07.671Z,0
2017-11-04T01:41:16.691Z,0
2017-11-04T01:42:25.379Z,0
2017-11-04T01:43:35.403Z,0
2017-11-04T01:44:44.426Z,0
2017-11-04T01:45:53.446Z,0
2017-11-04T01:47:02.465Z,0
2017-11-04T01:48:11.483Z,0
2017-11-04T01:49:20.172Z,0
2017-11-04T01:50:28.863Z,0
2017-11-04T01:51:38.555Z,0
2017-11-04T01:52:47.576Z,0
2017-11-04T01:53:56.263Z,0
2017-11-04T01:55:05.336Z,0
2017-11-04T01:56:14.027Z,0
2017-11-04T01:57:23.721Z,0
2017-11-04T01:58:32.415Z,0
2017-11-04T01:59:41.104Z,0
2017-11-04T02:00:50.461Z,0
2017-11-04T02:01:59.480Z,0
2017-11-04T02:03:08.501Z,0
2017-11-04T02:04:17.860Z,0
2017-11-04T02:05:27.218Z,0
2017-11-04T02:06:35.908Z,0
2017-11-04T02:07:44.929Z,0
2017-11-04T02:08:54.614Z,0
2017-11-04T02:10:03.636Z,0
2017-11-04T02:11:12.657Z,0
2017-11-04T02:12:21.688Z,0
2017-11-04T02:13:30.378Z,0
2017-11-04T02:14:39.405Z,0
2017-11-04T02:15:48.811Z,0
2017-11-04T02:16:57.832Z,0
2017-11-04T02:18:06.851Z,0
2017-11-04T02:19:16.210Z,0
2017-11-04T02:20:25.233Z,0
2017-11-04T02:21:34.920Z,0
2017-11-04T02:22:44.270Z,0
2017-11-04T02:23:53.624Z,0
2017-11-04T02:25:02.648Z,0
2017-11-04T02:26:11.720Z,0
2017-11-04T02:27:20.741Z,0
2017-11-04T02:28:30.094Z,0
2017-11-04T02:29:39.449Z,0
2017-11-04T02:30:48.469Z,0
2017-11-04T02:31:57.843Z,0
2017-11-04T02:33:07.535Z,0
2017-11-04T02:34:16.891Z,0
2017-11-04T02:35:26.584Z,0
2017-11-04T02:36:35.943Z,0
2017-11-04T02:37:45.624Z,0
2017-11-04T02:38:54.984Z,0
2017-11-04T02:40:03.674Z,0
2017-11-04T02:41:12.703Z,0
2017-11-04T02:42:22.391Z,0
2017-11-04T02:43:31.415Z,0
2017-11-04T02:44:41.106Z,0
2017-11-04T02:45:50.797Z,0
2017-11-04T02:46:59.816Z,0
2017-11-04T02:48:09.501Z,0
2017-11-04T02:49:18.857Z,0
2017-11-04T02:50:28.229Z,0
2017-11-04T02:51:37.587Z,0
2017-11-04T02:52:46.939Z,0
2017-11-04T02:53:56.295Z,0
2017-11-04T02:55:04.987Z,0
2017-11-04T02:56:14.341Z,0
2017-11-04T02:57:23.082Z,0
2017-11-04T02:58:32.108Z,0
2017-11-04T02:59:40.810Z,0
2017-11-04T03:00:50.508Z,0
2017-11-04T03:02:00.202Z,0
2017-11-04T03:03:09.557Z,0
2017-11-04T03:04:18.247Z,0
2017-11-04T03:05:27.610Z,0
2017-11-04T03:06:37.300Z,0
2017-11-04T03:07:46.989Z,0
2017-11-04T03:08:55.728Z,0
2017-11-04T03:10:04.416Z,0
2017-11-04T03:11:13.105Z,0
2017-11-04T03:12:22.462Z,0
2017-11-04T03:13:31.481Z,0
2017-11-04T03:14:40.170Z,0
2017-11-04T03:15:49.194Z,0
2017-11-04T03:16:57.880Z,0
2017-11-04T03:18:07.232Z,0
2017-11-04T03:19:16.252Z,0
2017-11-04T03:20:25.949Z,0
2017-11-04T03:21:35.983Z,0
2017-11-04T03:22:44.999Z,0
2017-11-04T03:23:53.688Z,0
2017-11-04T03:25:02.710Z,0
2017-11-04T03:26:11.730Z,0
2017-11-04T03:27:20.750Z,0
2017-11-04T03:28:29.773Z,0
2017-11-04T03:29:39.133Z,0
2017-11-04T03:30:48.492Z,0
2017-11-04T03:31:57.571Z,0
2017-11-04T03:33:07.274Z,0
2017-11-04T03:34:15.966Z,0
2017-11-04T03:35:24.997Z,0
2017-11-04T03:36:33.695Z,0
2017-11-04T03:37:42.767Z,0
2017-11-04T03:38:51.790Z,0
2017-11-04T03:40:00.483Z,0
2017-11-04T03:41:09.171Z,0
2017-11-04T03:42:18.524Z,0
2017-11-04T03:43:27.885Z,0
2017-11-04T03:44:36.579Z,0
2017-11-04T03:45:45.602Z,0
2017-11-04T03:46:54.628Z,0
2017-11-04T03:48:03.647Z,0
2017-11-04T03:49:13.002Z,0
2017-11-04T03:50:22.027Z,0
2017-11-04T03:51:31.044Z,0
2017-11-04T03:52:40.404Z,0
2017-11-04T03:53:49.426Z,0
2017-11-04T03:54:58.835Z,0
2017-11-04T03:56:08.190Z,0
2017-11-04T03:57:17.213Z,0
2017-11-04T03:58:26.230Z,0
2017-11-04T03:59:35.252Z,0
2017-11-04T04:00:44.272Z,0
2017-11-04T04:01:53.299Z,0
2017-11-04T04:03:02.685Z,0
2017-11-04T04:04:12.370Z,0
2017-11-04T04:05:21.725Z,0
2017-11-04T04:06:31.076Z,0
2017-11-04T04:07:40.434Z,0
2017-11-04T04:08:49.453Z,0
2017-11-04T04:09:58.145Z,0
2017-11-04T04:11:07.493Z,0
2017-11-04T04:12:16.849Z,0
2017-11-04T04:13:26.211Z,0
2017-11-04T04:14:35.573Z,0
2017-11-04T04:15:44.936Z,0
2017-11-04T04:16:54.623Z,0
2017-11-04T04:18:03.987Z,0
2017-11-04T04:19:12.677Z,0
2017-11-04T04:20:21.731Z,0
2017-11-04T04:21:30.425Z,0
2017-11-04T04:22:40.111Z,0
2017-11-04T04:23:49.134Z,0
2017-11-04T04:24:59.157Z,0
2017-11-04T04:26:08.843Z,0
2017-11-04T04:27:18.205Z,0
2017-11-04T04:28:26.894Z,0
2017-11-04T04:29:35.583Z,0
2017-11-04T04:30:44.271Z,0
2017-11-04T04:31:52.962Z,0
2017-11-04T04:33:02.001Z,0
2017-11-04T04:34:11.348Z,0
2017-11-04T04:35:20.370Z,0
2017-11-04T04:36:29.388Z,0
2017-11-04T04:37:38.746Z,0
2017-11-04T04:38:47.435Z,0
2017-11-04T04:39:56.793Z,0
2017-11-04T04:41:05.817Z,0
2017-11-04T04:42:15.170Z,0
2017-11-04T04:43:24.887Z,0
2017-11-04T04:44:34.240Z,0
2017-11-04T04:45:43.608Z,0
2017-11-04T04:46:52.298Z,0
2017-11-04T04:48:00.986Z,0
2017-11-04T04:49:10.340Z,0
2017-11-04T04:50:19.701Z,0
2017-11-04T04:51:29.055Z,0
2017-11-04T04:52:37.745Z,0
2017-11-04T04:53:47.436Z,0
2017-11-04T04:54:56.132Z,0
2017-11-04T04:56:05.492Z,0
2017-11-04T04:57:14.509Z,0
2017-11-04T04:58:23.529Z,0
2017-11-04T04:59:32.883Z,0
2017-11-04T05:00:42.235Z,0
2017-11-04T05:01:51.931Z,0
2017-11-04T05:03:01.628Z,0
2017-11-04T05:04:11.375Z,0
2017-11-04T05:05:20.399Z,0
2017-11-04T05:06:30.414Z,0
2017-11-04T05:07:40.097Z,0
2017-11-04T05:08:48.788Z,0
2017-11-04T05:09:57.482Z,0
2017-11-04T05:11:06.499Z,0
2017-11-04T05:12:15.522Z,0
2017-11-04T05:13:24.552Z,0
2017-11-04T05:14:33.910Z,0
2017-11-04T05:15:43.262Z,0
2017-11-04T05:16:52.618Z,0
2017-11-04T05:18:01.976Z,0
2017-11-04T05:19:10.999Z,0
2017-11-04T05:20:20.022Z,0
2017-11-04T05:21:29.376Z,0
2017-11-04T05:22:38.723Z,0
2017-11-04T05:23:47.793Z,0
2017-11-04T05:24:56.816Z,0
2017-11-04T05:26:05.506Z,0
2017-11-04T05:27:14.859Z,0
2017-11-04T05:28:23.882Z,0
2017-11-04T05:29:32.573Z,0
2017-11-04T05:30:41.924Z,0
2017-11-04T05:31:51.613Z,0
2017-11-04T05:33:00.301Z,0
2017-11-04T05:34:09.329Z,0
2017-11-04T05:35:18.024Z,0
2017-11-04T05:36:27.375Z,0
2017-11-04T05:37:36.393Z,0
2017-11-04T05:38:46.080Z,0
2017-11-04T05:39:55.431Z,0
2017-11-04T05:41:04.780Z,0
2017-11-04T05:42:14.133Z,0
2017-11-04T05:43:23.822Z,0
2017-11-04T05:44:33.510Z,0
2017-11-04T05:45:42.531Z,0
2017-11-04T05:46:51.555Z,0
2017-11-04T05:48:01.578Z,0
2017-11-04T05:49:10.602Z,0
2017-11-04T05:50:20.289Z,0
2017-11-04T05:51:28.978Z,0
2017-11-04T05:52:38.670Z,0
2017-11-04T05:53:48.031Z,0
2017-11-04T05:54:57.385Z,0
2017-11-04T05:56:06.408Z,0
2017-11-04T05:57:15.761Z,0
2017-11-04T05:58:25.451Z,0
2017-11-04T05:59:34.137Z,0
2017-11-04T06:00:43.159Z,0
2017-11-04T06:01:52.848Z,0
2017-11-04T06:03:02.541Z,0
2017-11-04T06:04:11.895Z,0
2017-11-04T06:05:20.985Z,0
2017-11-04T06:06:29.673Z,0
2017-11-04T06:07:39.357Z,0
2017-11-04T06:08:48.377Z,0
2017-11-04T06:09:57.399Z,0
2017-11-04T06:11:06.421Z,0
2017-11-04T06:12:15.140Z,0
2017-11-04T06:13:24.495Z,0
2017-11-04T06:14:33.185Z,0
2017-11-04T06:15:42.919Z,0
2017-11-04T06:16:51.940Z,0
2017-11-04T06:18:00.961Z,0
2017-11-04T06:19:09.985Z,0
2017-11-04T06:20:19.367Z,4
2017-11-04T06:21:28.412Z,4
2017-11-04T06:22:37.772Z,4
2017-11-04T06:23:46.790Z,0
2017-11-04T06:24:56.147Z,4
2017-11-04T06:26:05.171Z,4
2017-11-04T06:27:14.532Z,0
2017-11-04T06:28:23.555Z,4
2017-11-04T06:29:32.906Z,8
2017-11-04T06:30:41.596Z,4
2017-11-04T06:31:51.278Z,4
2017-11-04T06:33:00.636Z,8
2017-11-04T06:34:09.991Z,8
2017-11-04T06:35:18.680Z,8
2017-11-04T06:36:27.700Z,8
2017-11-04T06:37:36.722Z,8
2017-11-04T06:38:46.081Z,12
2017-11-04T06:39:55.100Z,12
2017-11-04T06:41:04.123Z,16
2017-11-04T06:42:13.472Z,16
2017-11-04T06:43:22.158Z,16
2017-11-04T06:44:30.849Z,16
2017-11-04T06:45:39.869Z,16
2017-11-04T06:46:48.891Z,16
2017-11-04T06:47:57.908Z,12
2017-11-04T06:49:06.928Z,16
2017-11-04T06:50:15.950Z,20
2017-11-04T06:51:24.971Z,20
2017-11-04T06:52:33.994Z,16
2017-11-04T06:53:43.379Z,16
2017-11-04T06:54:52.734Z,16
2017-11-04T06:56:01.773Z,16
2017-11-04T06:57:11.519Z,16
2017-11-04T06:58:20.541Z,20
2017-11-04T06:59:29.898Z,16
2017-11-04T07:00:38.925Z,20
2017-11-04T07:01:48.278Z,24
2017-11-04T07:02:57.299Z,24
2017-11-04T07:04:06.318Z,28
2017-11-04T07:05:15.338Z,156
2017-11-04T07:06:24.362Z,168
2017-11-04T07:07:33.431Z,180
2017-11-04T07:08:42.784Z,204
2017-11-04T07:09:52.137Z,208
2017-11-04T07:11:01.493Z,240
2017-11-04T07:12:10.847Z,276
2017-11-04T07:13:19.868Z,260
2017-11-04T07:14:29.223Z,276
2017-11-04T07:15:38.244Z,304
2017-11-04T07:16:47.278Z,284
2017-11-04T07:17:56.620Z,256
2017-11-04T07:19:05.644Z,244
2017-11-04T07:20:14.663Z,236
2017-11-04T07:21:23.683Z,244
2017-11-04T07:22:33.038Z,244
2017-11-04T07:23:42.411Z,232
2017-11-04T07:24:51.432Z,220
2017-11-04T07:26:00.454Z,212
2017-11-04T07:27:09.823Z,196
2017-11-04T07:28:18.494Z,188
2017-11-04T07:29:27.850Z,192
2017-11-04T07:30:36.872Z,220
2017-11-04T07:31:46.221Z,232
2017-11-04T07:32:55.244Z,236
2017-11-04T07:34:03.936Z,216
2017-11-04T07:35:12.956Z,236
2017-11-04T07:36:22.653Z,208
2017-11-04T07:37:31.337Z,212
2017-11-04T07:38:40.363Z,312
2017-11-04T07:39:49.052Z,372
2017-11-04T07:40:58.070Z,392
2017-11-04T07:42:06.759Z,380
2017-11-04T07:43:16.122Z,368
2017-11-04T07:44:25.142Z,352
2017-11-04T07:45:34.495Z,284
2017-11-04T07:46:43.189Z,212
2017-11-04T07:47:51.885Z,180
2017-11-04T07:49:00.908Z,184
2017-11-04T07:50:09.933Z,224
2017-11-04T07:51:18.620Z,260
2017-11-04T07:52:27.309Z,268
2017-11-04T07:53:36.377Z,276
2017-11-04T07:54:45.396Z,420
2017-11-04T07:55:54.744Z,464
2017-11-04T07:57:04.099Z,424
2017-11-04T07:58:13.120Z,376
2017-11-04T07:59:23.152Z,360
2017-11-04T08:00:32.840Z,424
2017-11-04T08:01:41.869Z,376
2017-11-04T08:02:50.886Z,336
2017-11-04T08:03:59.913Z,316
2017-11-04T08:05:08.940Z,332
2017-11-04T08:06:18.294Z,404
2017-11-04T08:07:27.979Z,472
2017-11-04T08:08:37.341Z,716
2017-11-04T08:09:46.035Z,1004
2017-11-04T08:10:55.718Z,828
2017-11-04T08:12:04.740Z,692
2017-11-04T08:13:13.762Z,808
2017-11-04T08:14:23.112Z,880
2017-11-04T08:15:32.465Z,832
2017-11-04T08:16:41.485Z,980
2017-11-04T08:17:50.841Z,1360
2017-11-04T08:19:00.537Z,1200
2017-11-04T08:20:09.890Z,880
2017-11-04T08:21:19.248Z,716
2017-11-04T08:22:28.270Z,916
2017-11-04T08:23:36.961Z,852
2017-11-04T08:24:45.655Z,1012
2017-11-04T08:25:55.009Z,1060
2017-11-04T08:27:03.700Z,860
2017-11-04T08:28:12.492Z,1440
2017-11-04T08:29:21.513Z,2524
2017-11-04T08:30:31.197Z,1312
2017-11-04T08:31:40.223Z,2532
2017-11-04T08:32:48.913Z,2584
2017-11-04T08:33:57.931Z,1916
2017-11-04T08:35:06.950Z,1568
2017-11-04T08:36:15.642Z,1344
2017-11-04T08:37:24.660Z,1560
2017-11-04T08:38:34.687Z,1584
2017-11-04T08:39:44.372Z,1520
2017-11-04T08:40:53.401Z,1144
2017-11-04T08:42:02.426Z,860
2017-11-04T08:43:11.453Z,1148
2017-11-04T08:44:20.817Z,564
2017-11-04T08:45:30.843Z,604
2017-11-04T08:46:39.870Z,476
2017-11-04T08:47:49.559Z,548
2017-11-04T08:48:59.238Z,436
2017-11-04T08:50:08.262Z,368
2017-11-04T08:51:17.621Z,480
2017-11-04T08:52:26.309Z,316
2017-11-04T08:53:35.662Z,324
2017-11-04T08:54:45.347Z,424
2017-11-04T08:55:54.039Z,460
2017-11-04T08:57:03.061Z,520
2017-11-04T08:58:11.752Z,512
2017-11-04T08:59:20.773Z,420
2017-11-04T09:00:29.461Z,272
2017-11-04T09:01:38.483Z,172
2017-11-04T09:02:47.845Z,144
2017-11-04T09:03:56.860Z,180
2017-11-04T09:05:06.212Z,176
2017-11-04T09:06:15.232Z,244
2017-11-04T09:07:24.915Z,256
2017-11-04T09:08:33.941Z,376
2017-11-04T09:09:42.970Z,424
2017-11-04T09:10:51.994Z,580
2017-11-04T09:12:00.685Z,588
2017-11-04T09:13:10.045Z,572
2017-11-04T09:14:18.752Z,712
2017-11-04T09:15:28.116Z,1020
2017-11-04T09:16:37.134Z,1116
2017-11-04T09:17:46.545Z,1592
2017-11-04T09:18:55.896Z,1220
2017-11-04T09:20:05.584Z,1132
2017-11-04T09:21:14.936Z,964
2017-11-04T09:22:24.618Z,560
2017-11-04T09:23:33.972Z,596
2017-11-04T09:24:42.662Z,864
2017-11-04T09:25:52.352Z,1260
2017-11-04T09:27:02.032Z,700
2017-11-04T09:28:11.385Z,636
2017-11-04T09:29:20.074Z,1144
2017-11-04T09:30:29.431Z,692
2017-11-04T09:31:38.120Z,888
2017-11-04T09:32:47.146Z,440
2017-11-04T09:33:56.165Z,732
2017-11-04T09:35:05.847Z,516
2017-11-04T09:36:15.535Z,492
2017-11-04T09:37:24.885Z,420
2017-11-04T09:38:34.243Z,492
2017-11-04T09:39:43.267Z,536
2017-11-04T09:40:52.619Z,680
2017-11-04T09:42:01.972Z,768
2017-11-04T09:43:10.662Z,896
2017-11-04T09:44:20.036Z,724
2017-11-04T09:45:29.390Z,864
2017-11-04T09:46:39.072Z,1008
2017-11-04T09:47:48.092Z,640
2017-11-04T09:48:57.116Z,980
2017-11-04T09:50:06.472Z,656
2017-11-04T09:51:15.161Z,1748
2017-11-04T09:52:24.193Z,4004
2017-11-04T09:53:33.542Z,1564
2017-11-04T09:54:42.567Z,2820
2017-11-04T09:55:51.924Z,7952
2017-11-04T09:57:00.614Z,6088
2017-11-04T09:58:09.640Z,1772
2017-11-04T09:59:18.994Z,2132
2017-11-04T10:00:28.677Z,1736
2017-11-04T10:01:37.366Z,3052
2017-11-04T10:02:46.057Z,2992
2017-11-04T10:03:55.413Z,3140
2017-11-04T10:05:04.439Z,5252
2017-11-04T10:06:13.461Z,3596
2017-11-04T10:07:22.484Z,11040
2017-11-04T10:08:32.175Z,5596
2017-11-04T10:09:41.200Z,2024
2017-11-04T10:10:50.570Z,3428
2017-11-04T10:11:59.258Z,4612
2017-11-04T10:13:08.281Z,3760
2017-11-04T10:14:16.972Z,2120
2017-11-04T10:15:25.994Z,1580
2017-11-04T10:16:35.021Z,4520
2017-11-04T10:17:43.711Z,3472
2017-11-04T10:18:52.397Z,1700
2017-11-04T10:20:01.747Z,4408
2017-11-04T10:21:11.105Z,5248
2017-11-04T10:22:20.457Z,4652
2017-11-04T10:23:29.479Z,4892
2017-11-04T10:24:38.171Z,4308
2017-11-04T10:25:47.858Z,4092
2017-11-04T10:26:57.214Z,3192
2017-11-04T10:28:06.898Z,3108
2017-11-04T10:29:15.919Z,4036
2017-11-04T10:30:25.276Z,4884
2017-11-04T10:31:34.632Z,6452
2017-11-04T10:32:43.323Z,5640
2017-11-04T10:33:52.346Z,3916
2017-11-04T10:35:02.036Z,3352
2017-11-04T10:36:11.062Z,2976
2017-11-04T10:37:19.749Z,4000
2017-11-04T10:38:29.117Z,2676
2017-11-04T10:39:38.473Z,2084
2017-11-04T10:40:48.488Z,2416
2017-11-04T10:41:57.865Z,2632
2017-11-04T10:43:06.874Z,2444
2017-11-04T10:44:16.560Z,3428
2017-11-04T10:45:25.248Z,6156
2017-11-04T10:46:34.280Z,8544
2017-11-04T10:47:43.636Z,8184
2017-11-04T10:48:52.325Z,4184
2017-11-04T10:50:01.015Z,4760
2017-11-04T10:51:10.374Z,6672
2017-11-04T10:52:19.727Z,3628
2017-11-04T10:53:29.091Z,3412
2017-11-04T10:54:38.115Z,2288
2017-11-04T10:55:47.477Z,2188
2017-11-04T10:56:56.164Z,2492
2017-11-04T10:58:04.857Z,2228
2017-11-04T10:59:13.879Z,1648
2017-11-04T11:00:23.240Z,1424
2017-11-04T11:01:32.473Z,1324
2017-11-04T11:02:42.492Z,1456
2017-11-04T11:03:51.516Z,1792
2017-11-04T11:05:00.876Z,2156
2017-11-04T11:06:09.901Z,2428
2017-11-04T11:07:18.595Z,3156
2017-11-04T11:08:27.286Z,6432
2017-11-04T11:09:36.980Z,3372
2017-11-04T11:10:46.340Z,3196
2017-11-04T11:11:55.368Z,5612
2017-11-04T11:13:04.730Z,5944
2017-11-04T11:14:14.083Z,7116
2017-11-04T11:15:22.776Z,7920
2017-11-04T11:16:32.464Z,3680
2017-11-04T11:17:41.823Z,4276
2017-11-04T11:18:50.513Z,3576
2017-11-04T11:19:59.537Z,2788
2017-11-04T11:21:08.232Z,4680
2017-11-04T11:22:16.924Z,3344
2017-11-04T11:23:26.280Z,3012
2017-11-04T11:24:35.304Z,2468
2017-11-04T11:25:44.990Z,2064
2017-11-04T11:26:54.014Z,1760
2017-11-04T11:28:03.041Z,1916
2017-11-04T11:29:12.401Z,2228
2017-11-04T11:30:21.764Z,2108
2017-11-04T11:31:31.466Z,2200
2017-11-04T11:32:40.494Z,2696
2017-11-04T11:33:49.849Z,4448
2017-11-04T11:34:59.205Z,4168
2017-11-04T11:36:07.897Z,3524
2017-11-04T11:37:16.589Z,3164
2017-11-04T11:38:25.620Z,3068
2017-11-04T11:39:34.645Z,2916
2017-11-04T11:40:43.339Z,2524
2017-11-04T11:41:53.037Z,2220
2017-11-04T11:43:02.061Z,2560
2017-11-04T11:44:11.747Z,2484
2017-11-04T11:45:21.156Z,1440
2017-11-04T11:46:30.510Z,1356
2017-11-04T11:47:40.197Z,1772
2017-11-04T11:48:48.895Z,1856
2017-11-04T11:49:57.912Z,2096
2017-11-04T11:51:07.036Z,2580
2017-11-04T11:52:16.062Z,2676
2017-11-04T11:53:25.085Z,2612
2017-11-04T11:54:33.776Z,2568
2017-11-04T11:55:42.803Z,2056
2017-11-04T11:56:52.156Z,2432
2017-11-04T11:58:00.847Z,2648
2017-11-04T11:59:10.212Z,2532
2017-11-04T12:00:18.905Z,2236
2017-11-04T12:01:28.604Z,1980
2017-11-04T12:02:37.446Z,1812
2017-11-04T12:03:46.471Z,1688
2017-11-04T12:04:55.492Z,1628
2017-11-04T12:06:04.518Z,1656
2017-11-04T12:07:13.868Z,1640
2017-11-04T12:08:22.563Z,1480
2017-11-04T12:09:31.917Z,1340
2017-11-04T12:10:40.942Z,1228
2017-11-04T12:11:49.964Z,1160
2017-11-04T12:12:58.986Z,1288
2017-11-04T12:14:08.009Z,1764
2017-11-04T12:15:17.698Z,1912
2017-11-04T12:16:27.050Z,2060
2017-11-04T12:17:36.408Z,1976
2017-11-04T12:18:46.111Z,1908
2017-11-04T12:19:54.802Z,1416
2017-11-04T12:21:04.493Z,1364
2017-11-04T12:22:13.515Z,1544
2017-11-04T12:23:23.204Z,1900
2017-11-04T12:24:31.896Z,2392
2017-11-04T12:25:41.583Z,2528
2017-11-04T12:26:50.944Z,2232
2017-11-04T12:28:00.314Z,1984
2017-11-04T12:29:09.332Z,1760
2017-11-04T12:30:18.353Z,1564
2017-11-04T12:31:27.377Z,1384
2017-11-04T12:32:36.399Z,1528
2017-11-04T12:33:45.755Z,1488
2017-11-04T12:34:54.451Z,1556
2017-11-04T12:36:03.816Z,1576
2017-11-04T12:37:13.518Z,1636
2017-11-04T12:38:22.870Z,1600
2017-11-04T12:39:32.222Z,1648
2017-11-04T12:40:41.575Z,1608
2017-11-04T12:41:50.931Z,1608
2017-11-04T12:43:00.286Z,1576
2017-11-04T12:44:09.313Z,1492
2017-11-04T12:45:18.338Z,1388
2017-11-04T12:46:27.697Z,1452
2017-11-04T12:47:37.048Z,1584
2017-11-04T12:48:46.081Z,1456
2017-11-04T12:49:55.104Z,1484
2017-11-04T12:51:03.793Z,1404
2017-11-04T12:52:13.146Z,1440
2017-11-04T12:53:22.512Z,1500
2017-11-04T12:54:32.294Z,1496
2017-11-04T12:55:40.985Z,1600
2017-11-04T12:56:50.014Z,1408
2017-11-04T12:57:58.705Z,1540
2017-11-04T12:59:08.062Z,1400
2017-11-04T13:00:16.754Z,1280
2017-11-04T13:01:26.111Z,1296
2017-11-04T13:02:35.463Z,1344
2017-11-04T13:03:44.484Z,1124
2017-11-04T13:04:53.840Z,1660
2017-11-04T13:06:02.913Z,1200
2017-11-04T13:07:11.940Z,1188
2017-11-04T13:08:20.961Z,952
2017-11-04T13:09:30.648Z,1596
2017-11-04T13:10:39.668Z,1280
2017-11-04T13:11:49.020Z,1164
2017-11-04T13:12:57.709Z,700
2017-11-04T13:14:06.740Z,1028
2017-11-04T13:15:15.435Z,836
2017-11-04T13:16:24.457Z,984
2017-11-04T13:17:33.150Z,904
2017-11-04T13:18:42.174Z,752
2017-11-04T13:19:51.193Z,1080
2017-11-04T13:21:00.551Z,1044
2017-11-04T13:22:09.910Z,1020
2017-11-04T13:23:19.267Z,1240
2017-11-04T13:24:28.293Z,1256
2017-11-04T13:25:38.002Z,1348
2017-11-04T13:26:47.355Z,1288
2017-11-04T13:27:56.045Z,1028
2017-11-04T13:29:04.735Z,916
2017-11-04T13:30:14.424Z,828
2017-11-04T13:31:23.449Z,896
2017-11-04T13:32:32.141Z,804
2017-11-04T13:33:41.830Z,736
2017-11-04T13:34:51.514Z,708
2017-11-04T13:36:00.537Z,636
2017-11-04T13:37:09.233Z,648
2017-11-04T13:38:18.585Z,864
2017-11-04T13:39:27.606Z,876
2017-11-04T13:40:36.625Z,548
2017-11-04T13:41:45.647Z,780
2017-11-04T13:42:54.337Z,768
2017-11-04T13:44:03.031Z,748
2017-11-04T13:45:11.725Z,808
2017-11-04T13:46:20.744Z,1112
2017-11-04T13:47:29.770Z,708
2017-11-04T13:48:38.462Z,608
2017-11-04T13:49:47.486Z,680
2017-11-04T13:50:56.510Z,812
2017-11-04T13:52:05.535Z,956
2017-11-04T13:53:14.888Z,976
2017-11-04T13:54:23.907Z,868
2017-11-04T13:55:32.603Z,912
2017-11-04T13:56:41.627Z,964
2017-11-04T13:57:50.648Z,816
2017-11-04T13:59:00.002Z,784
2017-11-04T14:00:09.358Z,516
2017-11-04T14:01:18.711Z,520
2017-11-04T14:02:28.067Z,840
2017-11-04T14:03:37.418Z,840
2017-11-04T14:04:46.445Z,920
2017-11-04T14:05:55.484Z,760
2017-11-04T14:07:04.162Z,840
2017-11-04T14:08:13.516Z,724
2017-11-04T14:09:22.868Z,568
2017-11-04T14:10:31.892Z,684
2017-11-04T14:11:40.588Z,680
2017-11-04T14:12:49.621Z,528
2017-11-04T14:13:58.309Z,532
2017-11-04T14:15:07.002Z,508
2017-11-04T14:16:15.692Z,472
2017-11-04T14:17:25.046Z,464
2017-11-04T14:18:34.398Z,512
2017-11-04T14:19:44.086Z,440
2017-11-04T14:20:53.117Z,420
2017-11-04T14:22:02.155Z,424
2017-11-04T14:23:11.862Z,416
2017-11-04T14:24:21.231Z,432
2017-11-04T14:25:30.634Z,436
2017-11-04T14:26:39.994Z,480
2017-11-04T14:27:49.347Z,388
2017-11-04T14:28:58.035Z,364
2017-11-04T14:30:07.058Z,388
2017-11-04T14:31:16.416Z,400
2017-11-04T14:32:25.777Z,528
2017-11-04T14:33:34.791Z,528
2017-11-04T14:34:43.820Z,416
2017-11-04T14:35:53.175Z,436
2017-11-04T14:37:02.204Z,360
2017-11-04T14:38:10.897Z,336
2017-11-04T14:39:19.922Z,408
2017-11-04T14:40:28.943Z,316
2017-11-04T14:41:37.965Z,304
2017-11-04T14:42:46.986Z,292
2017-11-04T14:43:56.008Z,288
2017-11-04T14:45:05.029Z,280
2017-11-04T14:46:13.719Z,268
2017-11-04T14:47:22.747Z,264
2017-11-04T14:48:32.101Z,256
2017-11-04T14:49:41.457Z,252
2017-11-04T14:50:50.816Z,248
2017-11-04T14:51:59.503Z,244
2017-11-04T14:53:09.521Z,240
2017-11-04T14:54:18.545Z,228
2017-11-04T14:55:27.567Z,224
2017-11-04T14:56:36.267Z,220
2017-11-04T14:57:44.951Z,220
2017-11-04T14:58:53.692Z,216
2017-11-04T15:00:03.381Z,212
2017-11-04T15:01:12.071Z,208
2017-11-04T15:02:21.096Z,200
2017-11-04T15:03:30.452Z,196
2017-11-04T15:04:39.804Z,188
2017-11-04T15:05:48.492Z,180
2017-11-04T15:06:57.512Z,176
2017-11-04T15:08:06.866Z,160
2017-11-04T15:09:16.225Z,152
2017-11-04T15:10:25.299Z,144
2017-11-04T15:11:34.322Z,140
2017-11-04T15:12:43.015Z,136
2017-11-04T15:13:52.373Z,136
2017-11-04T15:15:01.395Z,140
2017-11-04T15:16:10.753Z,136
2017-11-04T15:17:19.443Z,124
2017-11-04T15:18:28.800Z,116
2017-11-04T15:19:37.820Z,112
2017-11-04T15:20:46.559Z,108
2017-11-04T15:21:55.252Z,104
2017-11-04T15:23:04.275Z,100
2017-11-04T15:24:12.965Z,84
2017-11-04T15:25:22.319Z,84
2017-11-04T15:26:31.671Z,80
2017-11-04T15:27:40.693Z,76
2017-11-04T15:28:49.717Z,68
2017-11-04T15:29:59.409Z,64
2017-11-04T15:31:08.770Z,64
2017-11-04T15:32:18.464Z,64
2017-11-04T15:33:27.488Z,64
2017-11-04T15:34:36.898Z,60
2017-11-04T15:35:45.590Z,60
2017-11-04T15:36:54.944Z,56
2017-11-04T15:38:04.973Z,56
2017-11-04T15:39:14.325Z,48
2017-11-04T15:40:23.380Z,40
2017-11-04T15:41:32.037Z,32
2017-11-04T15:42:41.395Z,36
2017-11-04T15:43:50.419Z,28
2017-11-04T15:44:59.108Z,32
2017-11-04T15:46:08.463Z,32
2017-11-04T15:47:18.484Z,28
2017-11-04T15:48:28.169Z,28
2017-11-04T15:49:37.533Z,24
2017-11-04T15:50:46.222Z,16
2017-11-04T15:51:55.915Z,16
2017-11-04T15:53:04.936Z,24
2017-11-04T15:54:13.632Z,24
2017-11-04T15:55:22.656Z,16
2017-11-04T15:56:32.008Z,16
2017-11-04T15:57:41.035Z,12
2017-11-04T15:58:50.062Z,12
2017-11-04T15:59:59.418Z,8
2017-11-04T16:01:09.111Z,8
2017-11-04T16:02:18.458Z,8
2017-11-04T16:03:27.493Z,8
2017-11-04T16:04:36.515Z,8
2017-11-04T16:05:45.868Z,4
2017-11-04T16:06:55.886Z,4
2017-11-04T16:08:05.235Z,4
2017-11-04T16:09:14.259Z,4
2017-11-04T16:10:23.279Z,0
2017-11-04T16:11:31.966Z,4
2017-11-04T16:12:40.658Z,0
2017-11-04T16:13:49.692Z,0
2017-11-04T16:14:58.715Z,0